TAF KCID
KCID 090529Z 0906/1006 12011KT P6SM OVC250 FM090800 13012KT P6SM OVC200 WS013/17040KT FM091100 13012KT P6SM OVC080 WS013/17044KT FM091500 14010KT P6SM OVC035 FM092000 22007KT P6SM SCT180=
METAR KCID
WC KCID
WS KCID
WV KCID